createdAt,value
2022-10-09T00:00:25.074Z,100.00
2022-10-09T00:02:53.053Z,100.00
2022-10-09T00:05:23.757Z,100.00
2022-10-09T00:07:51.782Z,100.00
2022-10-09T00:10:21.230Z,100.00
2022-10-09T00:12:49.557Z,100.00
2022-10-09T00:15:17.952Z,100.00
2022-10-09T00:17:46.309Z,100.00
2022-10-09T00:20:14.950Z,100.00
2022-10-09T00:22:43.575Z,100.00
2022-10-09T00:25:11.680Z,100.00
2022-10-09T00:27:41.758Z,100.00
2022-10-09T00:30:11.131Z,100.00
2022-10-09T00:32:39.238Z,100.00
2022-10-09T00:35:07.922Z,100.00
2022-10-09T00:37:36.078Z,100.00
2022-10-09T00:40:04.371Z,100.00
2022-10-09T00:42:32.926Z,100.00
2022-10-09T00:45:02.804Z,100.00
2022-10-09T00:47:32.606Z,100.00
2022-10-09T00:50:02.905Z,100.00
2022-10-09T00:52:31.242Z,100.00
2022-10-09T00:54:59.244Z,100.00
2022-10-09T00:57:27.428Z,100.00
2022-10-09T00:59:55.593Z,100.00
2022-10-09T01:02:25.078Z,100.00
2022-10-09T01:04:53.069Z,100.00
2022-10-09T01:07:30.942Z,100.00
2022-10-09T01:10:02.985Z,100.00
2022-10-09T01:12:42.946Z,100.00
2022-10-09T01:15:15.578Z,100.00
2022-10-09T01:17:46.915Z,100.00
2022-10-09T01:20:35.298Z,100.00
2022-10-09T01:23:18.903Z,100.00
2022-10-09T01:25:52.835Z,100.00
2022-10-09T01:28:22.486Z,100.00
2022-10-09T01:30:50.922Z,100.00
2022-10-09T01:33:19.278Z,100.00
2022-10-09T01:35:47.273Z,100.00
2022-10-09T01:38:15.614Z,100.00
2022-10-09T01:40:43.982Z,100.00
2022-10-09T01:43:11.949Z,100.00
2022-10-09T01:45:43.438Z,100.00
2022-10-09T01:48:18.078Z,100.00
2022-10-09T01:50:47.090Z,100.00
2022-10-09T01:53:16.755Z,100.00
2022-10-09T01:55:46.366Z,100.00
2022-10-09T01:58:17.294Z,100.00
2022-10-09T02:00:48.440Z,100.00
2022-10-09T02:03:17.163Z,100.00
2022-10-09T02:05:45.360Z,100.00
2022-10-09T02:08:13.882Z,100.00
2022-10-09T02:10:41.982Z,100.00
2022-10-09T02:13:10.005Z,100.00
2022-10-09T02:15:39.293Z,100.00
2022-10-09T02:18:10.410Z,100.00
2022-10-09T02:20:39.687Z,100.00
2022-10-09T02:23:08.395Z,100.00
2022-10-09T02:25:36.382Z,100.00
2022-10-09T02:28:04.567Z,100.00
2022-10-09T02:30:42.941Z,100.00
2022-10-09T02:33:12.352Z,100.00
2022-10-09T02:35:40.365Z,100.00
2022-10-09T02:38:08.330Z,100.00
2022-10-09T02:40:36.350Z,100.00
2022-10-09T02:43:04.782Z,100.00
2022-10-09T02:45:33.114Z,100.00
2022-10-09T02:48:01.180Z,100.00
2022-10-09T02:50:30.547Z,100.00
2022-10-09T02:52:58.814Z,100.00
2022-10-09T02:55:26.896Z,100.00
2022-10-09T02:57:55.306Z,100.00
2022-10-09T03:00:23.349Z,100.00
2022-10-09T03:02:51.734Z,100.00
2022-10-09T03:05:20.128Z,100.00
2022-10-09T03:07:53.142Z,100.00
2022-10-09T03:10:21.863Z,100.00
2022-10-09T03:12:50.069Z,100.00
2022-10-09T03:15:18.485Z,100.00
2022-10-09T03:17:46.515Z,100.00
2022-10-09T03:20:14.777Z,100.00
2022-10-09T03:22:43.236Z,100.00
2022-10-09T03:25:12.587Z,100.00
2022-10-09T03:27:40.592Z,100.00
2022-10-09T03:30:11.794Z,100.00
2022-10-09T03:32:39.798Z,100.00
2022-10-09T03:35:08.241Z,100.00
2022-10-09T03:37:36.308Z,100.00
2022-10-09T03:40:05.171Z,100.00
2022-10-09T03:42:35.577Z,100.00
2022-10-09T03:45:04.884Z,100.00
2022-10-09T03:47:33.121Z,100.00
2022-10-09T03:50:01.352Z,100.00
2022-10-09T03:52:29.400Z,100.00
2022-10-09T03:54:57.654Z,100.00
2022-10-09T03:57:25.670Z,100.00
2022-10-09T03:59:55.563Z,100.00
2022-10-09T04:02:23.698Z,100.00
2022-10-09T04:04:51.801Z,100.00
2022-10-09T04:07:21.358Z,100.00
2022-10-09T04:09:50.047Z,100.00
2022-10-09T04:12:18.069Z,100.00
2022-10-09T04:14:46.394Z,100.00
2022-10-09T04:17:15.787Z,100.00
2022-10-09T04:19:43.825Z,100.00
2022-10-09T04:22:11.873Z,100.00
2022-10-09T04:24:39.862Z,100.00
2022-10-09T04:27:07.836Z,100.00
2022-10-09T04:29:36.271Z,100.00
2022-10-09T04:32:04.282Z,100.00
2022-10-09T04:34:33.701Z,100.00
2022-10-09T04:37:01.724Z,100.00
2022-10-09T04:39:29.774Z,100.00
2022-10-09T04:41:57.784Z,100.00
2022-10-09T04:44:26.220Z,100.00
2022-10-09T04:46:54.457Z,100.00
2022-10-09T04:49:22.512Z,100.00
2022-10-09T04:51:52.267Z,100.00
2022-10-09T04:54:20.241Z,100.00
2022-10-09T04:56:48.341Z,100.00
2022-10-09T04:59:16.610Z,100.00
2022-10-09T05:01:44.743Z,100.00
2022-10-09T05:04:12.825Z,100.00
2022-10-09T05:06:40.786Z,100.00
2022-10-09T05:09:10.577Z,100.00
2022-10-09T05:11:42.526Z,100.00
2022-10-09T05:14:11.024Z,100.00
2022-10-09T05:17:08.168Z,100.00
2022-10-09T05:19:27.287Z,100.00
2022-10-09T05:21:56.016Z,100.00
2022-10-09T05:24:26.963Z,100.00
2022-10-09T05:26:55.996Z,100.00
2022-10-09T05:29:24.041Z,100.00
2022-10-09T05:31:52.131Z,100.00
2022-10-09T05:34:20.620Z,100.00
2022-10-09T05:36:48.753Z,100.00
2022-10-09T05:39:17.448Z,100.00
2022-10-09T05:41:47.507Z,100.00
2022-10-09T05:44:15.918Z,100.00
2022-10-09T05:46:43.948Z,100.00
2022-10-09T05:49:12.171Z,100.00
2022-10-09T05:51:42.799Z,100.00
2022-10-09T05:54:11.405Z,100.00
2022-10-09T05:56:40.822Z,100.00
2022-10-09T05:59:11.445Z,100.00
2022-10-09T06:01:40.388Z,100.00
2022-10-09T06:04:10.984Z,100.00
2022-10-09T06:06:39.690Z,100.00
2022-10-09T06:09:07.783Z,100.00
2022-10-09T06:11:36.595Z,100.00
2022-10-09T06:14:05.511Z,100.00
2022-10-09T06:16:36.297Z,100.00
2022-10-09T06:19:04.525Z,100.00
2022-10-09T06:21:32.630Z,100.00
2022-10-09T06:24:02.851Z,100.00
2022-10-09T06:26:31.740Z,100.00
2022-10-09T06:29:00.712Z,100.00
2022-10-09T06:31:29.508Z,100.00
2022-10-09T06:33:59.584Z,100.00
2022-10-09T06:36:28.570Z,100.00
2022-10-09T06:38:56.665Z,100.00
2022-10-09T06:41:25.620Z,100.00
2022-10-09T06:43:54.280Z,100.00
2022-10-09T06:46:24.308Z,100.00
2022-10-09T06:48:53.138Z,100.00
2022-10-09T06:51:23.899Z,100.00
2022-10-09T06:53:53.490Z,100.00
2022-10-09T06:56:22.395Z,100.00
2022-10-09T06:58:50.627Z,100.00
2022-10-09T07:01:19.399Z,100.00
2022-10-09T07:03:48.323Z,100.00
2022-10-09T07:06:17.001Z,100.00
2022-10-09T07:08:47.343Z,100.00
2022-10-09T07:11:15.945Z,100.00
2022-10-09T07:13:47.643Z,100.00
2022-10-09T07:16:19.115Z,100.00
2022-10-09T07:19:26.803Z,100.00
2022-10-09T07:22:27.993Z,100.00
2022-10-09T07:25:54.631Z,100.00
2022-10-09T07:31:59.084Z,100.00
2022-10-09T07:42:12.894Z,100.00
2022-10-09T07:44:41.073Z,100.00
2022-10-09T07:47:11.157Z,100.00
2022-10-09T07:49:39.367Z,100.00
2022-10-09T07:52:07.753Z,100.00
2022-10-09T07:54:35.735Z,100.00
2022-10-09T07:57:03.810Z,100.00
2022-10-09T07:59:32.212Z,100.00
2022-10-09T08:02:00.742Z,100.00
2022-10-09T08:04:30.277Z,100.00
2022-10-09T08:06:59.977Z,100.00
2022-10-09T08:09:28.451Z,100.00
2022-10-09T08:11:57.291Z,100.00
2022-10-09T08:14:25.649Z,100.00
2022-10-09T08:16:53.758Z,100.00
2022-10-09T08:19:23.680Z,100.00
2022-10-09T08:21:53.149Z,100.00
2022-10-09T08:24:21.311Z,100.00
2022-10-09T08:26:49.390Z,100.00
2022-10-09T08:29:20.549Z,100.00
2022-10-09T08:31:48.529Z,100.00
2022-10-09T08:34:16.909Z,100.00
2022-10-09T08:36:46.382Z,100.00
2022-10-09T08:39:16.284Z,100.00
2022-10-09T08:41:45.841Z,100.00
2022-10-09T08:44:17.831Z,100.00
2022-10-09T08:46:54.511Z,100.00
2022-10-09T08:49:26.239Z,100.00
2022-10-09T08:51:54.281Z,100.00
2022-10-09T08:54:27.768Z,100.00
2022-10-09T08:56:56.070Z,100.00
2022-10-09T08:59:24.551Z,100.00
2022-10-09T09:01:56.198Z,100.00
2022-10-09T09:04:35.453Z,100.00
2022-10-09T09:07:09.138Z,100.00
2022-10-09T09:09:47.591Z,100.00
2022-10-09T09:12:19.231Z,100.00
2022-10-09T09:14:59.541Z,100.00
2022-10-09T09:17:30.732Z,100.00
2022-10-09T09:20:04.849Z,100.00
2022-10-09T09:22:33.465Z,100.00
2022-10-09T09:25:04.450Z,100.00
2022-10-09T09:27:34.232Z,100.00
2022-10-09T09:30:05.047Z,100.00
2022-10-09T09:32:34.164Z,100.00
2022-10-09T09:35:08.476Z,100.00
2022-10-09T09:37:37.855Z,100.00
2022-10-09T09:40:35.984Z,100.00
2022-10-09T09:49:55.082Z,100.00
2022-10-09T09:52:23.359Z,100.00
2022-10-09T09:54:51.605Z,100.00
2022-10-09T09:57:28.059Z,100.00
2022-10-09T09:59:56.311Z,100.00
2022-10-09T10:02:26.311Z,100.00
2022-10-09T10:04:55.694Z,100.00
2022-10-09T10:07:31.573Z,100.00
2022-10-09T10:10:04.659Z,100.00
2022-10-09T10:12:34.759Z,100.00
2022-10-09T10:15:03.156Z,100.00
2022-10-09T10:17:31.647Z,100.00
2022-10-09T10:19:59.920Z,100.00
2022-10-09T10:22:29.553Z,100.00
2022-10-09T10:24:58.279Z,100.00
2022-10-09T10:27:28.836Z,100.00
2022-10-09T10:29:59.851Z,100.00
2022-10-09T10:32:31.735Z,100.00
2022-10-09T10:35:18.950Z,100.00
2022-10-09T10:37:48.520Z,100.00
2022-10-09T10:40:18.137Z,100.00
2022-10-09T10:42:57.381Z,100.00
2022-10-09T10:45:31.828Z,100.00
2022-10-09T10:48:00.090Z,100.00
2022-10-09T10:50:29.799Z,100.00
2022-10-09T10:53:03.536Z,100.00
2022-10-09T10:55:38.314Z,100.00
2022-10-09T10:58:17.456Z,100.00
2022-10-09T11:00:51.808Z,100.00
2022-10-09T11:03:29.058Z,100.00
2022-10-09T11:05:58.207Z,100.00
2022-10-09T11:08:35.978Z,100.00
2022-10-09T11:11:06.349Z,100.00
2022-10-09T11:13:38.450Z,100.00
2022-10-09T11:16:17.077Z,100.00
2022-10-09T11:18:54.275Z,100.00
2022-10-09T11:21:48.749Z,100.00
2022-10-09T11:24:27.095Z,100.00
2022-10-09T11:27:03.200Z,100.00
2022-10-09T11:29:34.563Z,100.00
2022-10-09T11:32:06.832Z,100.00
2022-10-09T11:34:36.547Z,100.00
2022-10-09T11:37:04.805Z,100.00
2022-10-09T11:39:33.035Z,100.00
2022-10-09T11:42:01.326Z,100.00
2022-10-09T11:44:37.007Z,100.00
2022-10-09T11:47:11.429Z,100.00
2022-10-09T11:49:45.389Z,100.00
2022-10-09T11:52:19.439Z,100.00
2022-10-09T11:54:47.728Z,100.00
2022-10-09T11:57:15.992Z,100.00
2022-10-09T11:59:45.272Z,100.00
2022-10-09T12:02:31.146Z,100.00
2022-10-09T12:04:59.645Z,100.00
2022-10-09T12:07:30.662Z,100.00
2022-10-09T12:10:00.967Z,100.00
2022-10-09T12:12:29.498Z,100.00
2022-10-09T12:14:58.580Z,100.00
2022-10-09T12:17:35.536Z,100.00
2022-10-09T12:20:07.045Z,100.00
2022-10-09T12:22:36.656Z,100.00
2022-10-09T12:25:08.308Z,100.00
2022-10-09T12:27:37.878Z,100.00
2022-10-09T12:30:17.033Z,100.00
2022-10-09T12:32:50.870Z,100.00
2022-10-09T12:35:23.291Z,100.00
2022-10-09T12:37:51.845Z,100.00
2022-10-09T12:40:23.690Z,100.00
2022-10-09T12:42:52.954Z,100.00
2022-10-09T12:45:22.368Z,98.98
2022-10-09T12:47:52.068Z,100.00
2022-10-09T12:50:23.969Z,100.00
2022-10-09T12:52:52.794Z,98.66
2022-10-09T12:55:26.488Z,100.00
2022-10-09T12:57:55.284Z,99.32
2022-10-09T13:00:23.534Z,99.35
2022-10-09T13:02:53.636Z,100.00
2022-10-09T13:05:22.305Z,100.00
2022-10-09T13:07:52.679Z,99.96
2022-10-09T13:10:22.344Z,98.74
2022-10-09T13:12:52.278Z,98.32
2022-10-09T13:15:35.727Z,99.16
2022-10-09T13:18:14.128Z,99.07
2022-10-09T13:20:42.374Z,96.88
2022-10-09T13:23:27.886Z,98.44
2022-10-09T13:25:58.872Z,96.05
2022-10-09T13:28:43.467Z,94.89
2022-10-09T13:31:12.131Z,95.18
2022-10-09T13:33:41.774Z,93.69
2022-10-09T13:36:11.101Z,94.15
2022-10-09T13:38:39.354Z,94.20
2022-10-09T13:41:07.600Z,91.29
2022-10-09T13:43:35.846Z,93.34
2022-10-09T13:46:04.413Z,90.83
2022-10-09T13:48:33.944Z,92.53
2022-10-09T13:51:03.709Z,93.17
2022-10-09T13:53:32.268Z,91.95
2022-10-09T13:56:01.172Z,90.46
2022-10-09T13:58:29.536Z,91.05
2022-10-09T14:00:58.337Z,88.90
2022-10-09T14:03:26.740Z,90.69
2022-10-09T14:05:59.280Z,91.12
2022-10-09T14:08:28.932Z,89.26
2022-10-09T14:10:57.330Z,86.30
2022-10-09T14:13:25.577Z,81.52
2022-10-09T14:15:54.416Z,83.97
2022-10-09T14:18:22.952Z,81.83
2022-10-09T14:20:51.254Z,80.73
2022-10-09T14:23:19.488Z,83.91
2022-10-09T14:25:49.361Z,82.02
2022-10-09T14:28:17.742Z,78.57
2022-10-09T14:31:05.891Z,79.91
2022-10-09T14:33:34.153Z,82.61
2022-10-09T14:36:07.558Z,80.73
2022-10-09T14:38:38.886Z,82.84
2022-10-09T14:41:09.230Z,83.28
2022-10-09T14:43:37.552Z,80.14
2022-10-09T14:46:06.663Z,82.21
2022-10-09T14:48:35.466Z,84.20
2022-10-09T14:51:04.918Z,83.89
2022-10-09T14:53:34.512Z,82.35
2022-10-09T14:56:03.446Z,87.65
2022-10-09T14:58:33.578Z,79.13
2022-10-09T15:01:19.522Z,83.10
2022-10-09T15:03:48.349Z,82.18
2022-10-09T15:06:17.435Z,83.36
2022-10-09T15:08:45.811Z,84.63
2022-10-09T15:11:14.160Z,84.14
2022-10-09T15:13:43.814Z,84.60
2022-10-09T15:16:13.205Z,83.41
2022-10-09T15:18:41.603Z,85.78
2022-10-09T15:21:13.469Z,88.62
2022-10-09T15:23:41.737Z,88.39
2022-10-09T15:26:10.321Z,87.34
2022-10-09T15:28:38.877Z,90.17
2022-10-09T15:31:10.238Z,90.75
2022-10-09T15:33:38.494Z,92.77
2022-10-09T15:36:06.840Z,93.69
2022-10-09T15:38:35.371Z,95.95
2022-10-09T15:43:49.552Z,96.38
2022-10-09T15:46:19.286Z,99.05
2022-10-09T15:48:47.666Z,98.72
2022-10-09T15:51:15.916Z,99.24
2022-10-09T15:53:44.794Z,100.00
2022-10-09T15:56:17.255Z,100.00
2022-10-09T15:58:45.561Z,100.00
2022-10-09T16:01:14.768Z,100.00
2022-10-09T16:03:44.766Z,100.00
2022-10-09T16:06:13.856Z,100.00
2022-10-09T16:08:42.492Z,100.00
2022-10-09T16:11:11.876Z,100.00
2022-10-09T16:13:59.353Z,100.00
2022-10-09T16:16:28.915Z,100.00
2022-10-09T16:19:00.592Z,100.00
2022-10-09T16:21:29.653Z,100.00
2022-10-09T16:23:59.578Z,100.00
2022-10-09T16:26:28.619Z,100.00
2022-10-09T16:28:56.850Z,100.00
2022-10-09T16:31:26.148Z,100.00
2022-10-09T16:33:54.481Z,100.00
2022-10-09T16:36:24.377Z,100.00
2022-10-09T16:39:10.916Z,100.00
2022-10-09T16:41:41.963Z,100.00
2022-10-09T16:44:13.426Z,100.00
2022-10-09T16:46:41.978Z,100.00
2022-10-09T16:49:14.766Z,100.00
2022-10-09T16:51:44.448Z,100.00
2022-10-09T16:54:12.713Z,100.00
2022-10-09T16:56:41.411Z,100.00
2022-10-09T16:59:11.389Z,100.00
2022-10-09T17:01:43.765Z,100.00
2022-10-09T17:04:13.120Z,100.00
2022-10-09T17:06:46.683Z,100.00
2022-10-09T17:09:15.009Z,100.00
2022-10-09T17:11:43.262Z,100.00
2022-10-09T17:14:12.382Z,100.00
2022-10-09T17:16:41.220Z,100.00
2022-10-09T17:19:29.662Z,100.00
2022-10-09T17:22:01.332Z,100.00
2022-10-09T17:24:29.734Z,100.00
2022-10-09T17:26:58.577Z,100.00
2022-10-09T17:29:26.877Z,100.00
2022-10-09T17:31:55.145Z,100.00
2022-10-09T17:34:23.439Z,100.00
2022-10-09T17:36:54.609Z,100.00
2022-10-09T17:39:24.618Z,100.00
2022-10-09T17:41:52.876Z,100.00
2022-10-09T17:44:22.952Z,100.00
2022-10-09T17:46:51.200Z,100.00
2022-10-09T17:49:20.315Z,100.00
2022-10-09T17:51:49.632Z,100.00
2022-10-09T17:54:18.201Z,100.00
2022-10-09T17:56:47.833Z,100.00
2022-10-09T17:59:16.916Z,100.00
2022-10-09T18:01:45.501Z,100.00
2022-10-09T18:04:16.447Z,100.00
2022-10-09T18:09:30.292Z,100.00
2022-10-09T18:12:00.056Z,100.00
2022-10-09T18:14:28.326Z,100.00
2022-10-09T18:16:56.587Z,100.00
2022-10-09T18:19:24.850Z,100.00
2022-10-09T18:24:38.818Z,100.00
2022-10-09T18:27:08.484Z,100.00
2022-10-09T18:29:37.170Z,100.00
2022-10-09T18:32:05.994Z,100.00
2022-10-09T18:34:38.921Z,100.00
2022-10-09T18:37:07.839Z,100.00
2022-10-09T18:39:36.380Z,100.00
2022-10-09T18:42:05.114Z,100.00
2022-10-09T18:44:40.989Z,100.00
2022-10-09T18:47:11.941Z,100.00
2022-10-09T18:49:42.155Z,100.00
2022-10-09T18:52:10.576Z,100.00
2022-10-09T18:57:26.021Z,100.00
2022-10-09T18:59:55.677Z,100.00
2022-10-09T19:02:26.693Z,100.00
2022-10-09T19:04:55.067Z,100.00
2022-10-09T19:07:23.341Z,100.00
2022-10-09T19:09:57.016Z,100.00
2022-10-09T19:12:25.670Z,100.00
2022-10-09T19:15:12.706Z,100.00
2022-10-09T19:17:42.297Z,100.00
2022-10-09T19:20:11.052Z,100.00
2022-10-09T19:22:40.528Z,100.00
2022-10-09T19:25:09.178Z,100.00
2022-10-09T19:27:37.402Z,100.00
2022-10-09T19:30:06.186Z,100.00
2022-10-09T19:32:34.425Z,100.00
2022-10-09T19:35:04.401Z,100.00
2022-10-09T19:37:32.632Z,100.00
2022-10-09T19:40:01.038Z,100.00
2022-10-09T19:42:48.114Z,100.00
2022-10-09T19:45:16.455Z,100.00
2022-10-09T19:47:44.719Z,100.00
2022-10-09T19:50:15.198Z,100.00
2022-10-09T19:52:43.463Z,100.00
2022-10-09T19:55:11.723Z,100.00
2022-10-09T19:57:40.103Z,100.00
2022-10-09T20:00:09.490Z,100.00
2022-10-09T20:02:37.754Z,100.00
2022-10-09T20:05:06.479Z,100.00
2022-10-09T20:07:36.123Z,100.00
2022-10-09T20:10:04.596Z,100.00
2022-10-09T20:12:33.165Z,100.00
2022-10-09T20:15:01.416Z,100.00
2022-10-09T20:17:29.639Z,100.00
2022-10-09T20:20:03.668Z,100.00
2022-10-09T20:22:37.803Z,100.00
2022-10-09T20:25:08.835Z,100.00
2022-10-09T20:27:37.337Z,100.00
2022-10-09T20:30:05.994Z,100.00
2022-10-09T20:32:37.075Z,100.00
2022-10-09T20:35:06.278Z,100.00
2022-10-09T20:37:35.150Z,100.00
2022-10-09T20:40:03.462Z,100.00
2022-10-09T20:42:33.869Z,100.00
2022-10-09T20:45:02.143Z,100.00
2022-10-09T20:47:30.380Z,100.00
2022-10-09T20:49:59.080Z,100.00
2022-10-09T20:52:27.374Z,100.00
2022-10-09T20:54:55.601Z,100.00
2022-10-09T20:57:23.858Z,100.00
2022-10-09T20:59:53.458Z,100.00
2022-10-09T21:02:22.035Z,100.00
2022-10-09T21:04:50.278Z,100.00
2022-10-09T21:07:18.503Z,100.00
2022-10-09T21:09:47.078Z,100.00
2022-10-09T21:12:15.315Z,100.00
2022-10-09T21:14:43.583Z,100.00
2022-10-09T21:17:13.224Z,100.00
2022-10-09T21:19:41.791Z,100.00
2022-10-09T21:22:27.287Z,100.00
2022-10-09T21:24:55.552Z,100.00
2022-10-09T21:27:28.220Z,100.00
2022-10-09T21:29:57.885Z,100.00
2022-10-09T21:32:27.816Z,100.00
2022-10-09T21:34:56.079Z,100.00
2022-10-09T21:37:24.367Z,100.00
2022-10-09T21:39:52.589Z,100.00
2022-10-09T21:42:20.849Z,100.00
2022-10-09T21:44:49.377Z,100.00
2022-10-09T21:47:19.004Z,100.00
2022-10-09T21:49:48.843Z,100.00
2022-10-09T21:52:17.396Z,100.00
2022-10-09T21:54:46.002Z,100.00
2022-10-09T21:57:14.293Z,100.00
2022-10-09T21:59:42.538Z,100.00
2022-10-09T22:02:11.145Z,100.00
2022-10-09T22:04:39.410Z,100.00
2022-10-09T22:07:09.009Z,100.00
2022-10-09T22:09:37.665Z,100.00
2022-10-09T22:12:06.321Z,100.00
2022-10-09T22:14:34.623Z,100.00
2022-10-09T22:17:03.488Z,100.00
2022-10-09T22:19:32.797Z,100.00
2022-10-09T22:22:01.046Z,100.00
2022-10-09T22:24:30.672Z,100.00
2022-10-09T22:26:58.940Z,100.00
2022-10-09T22:29:27.177Z,100.00
2022-10-09T22:31:55.427Z,100.00
2022-10-09T22:34:23.928Z,100.00
2022-10-09T22:36:52.196Z,100.00
2022-10-09T22:39:20.434Z,100.00
2022-10-09T22:41:50.062Z,100.00
2022-10-09T22:44:18.810Z,100.00
2022-10-09T22:46:47.950Z,100.00
2022-10-09T22:49:16.406Z,100.00
2022-10-09T22:51:45.118Z,100.00
2022-10-09T22:54:15.173Z,100.00
2022-10-09T22:56:44.596Z,100.00
2022-10-09T22:59:15.666Z,100.00
2022-10-09T23:01:45.385Z,100.00
2022-10-09T23:04:14.261Z,100.00
2022-10-09T23:06:45.028Z,100.00
2022-10-09T23:09:14.528Z,100.00
2022-10-09T23:11:42.876Z,100.00
2022-10-09T23:14:11.783Z,100.00
2022-10-09T23:16:41.774Z,100.00
2022-10-09T23:19:10.247Z,100.00
2022-10-09T23:21:39.326Z,100.00
2022-10-09T23:24:08.075Z,100.00
2022-10-09T23:26:36.732Z,100.00
2022-10-09T23:29:05.970Z,100.00
2022-10-09T23:31:34.257Z,100.00
2022-10-09T23:34:04.186Z,100.00
2022-10-09T23:36:32.490Z,100.00
2022-10-09T23:39:00.822Z,100.00
2022-10-09T23:41:29.371Z,100.00
2022-10-09T23:43:58.235Z,100.00
2022-10-09T23:46:27.521Z,100.00
2022-10-09T23:48:55.990Z,100.00
2022-10-09T23:51:27.053Z,100.00
2022-10-09T23:53:55.284Z,100.00
2022-10-09T23:56:24.729Z,100.00
2022-10-09T23:58:54.045Z,100.00
